Hitchcock, Oklahoma
Current Conditions -  °F | °C
As of 6:15 AM on Friday 28 Nov 2014 (Local Time) from KJWG Reporting Station
Clear Clear  
Wind Chill: 36°   Ceiling: Unl
Heat Index: 43°   Visibility: 10mi
Dew Point: 34°   Wind: 12mph
Humidity: 71%   Direction: 190°S
Pressure: 30.06"   Gusts: 17mph
Location:  35.97°N, 98.35°W
Report Text: KJWG 281215Z AUTO 19010G15KT 10SM CLR 06/01 A3006 RMK AO2 T00590010
Loading
Personal Weather Stations






























Interactive Weather Map New forecast layout! Learn more

10-Day Weather Forecast

Advertisements
Track Severe Weather on mobile